Time;durP1;ratioP1;P1;durP2;ratioP2;P2;SDS_P1;SDS_P2;PMS_P1;PMS_P2;Temp;Humidity;BMP_temperature;BMP_pressure;BME280_temperature;BME280_humidity;BME280_pressure;Samples;Min_cycle;Max_cycle;Signal;HPM_P1;HPM_P2
2021/11/12 00:02:42;;;;;;;18.20;11.70;;;;;;;4.26;97.14;101570.72;5046464;28;20095;-69
2021/11/12 00:13:25;;;;;;;19.55;11.20;;;;;;;4.17;96.62;101563.19;5055515;28;20036;-70
2021/11/12 00:15:53;;;;;;;18.08;11.50;;;;;;;4.21;96.34;101557.56;5054821;28;20034;-71
2021/11/12 00:18:25;;;;;;;19.27;12.07;;;;;;;4.16;94.31;101557.97;5054772;28;20029;-70
2021/11/12 00:20:51;;;;;;;19.45;11.95;;;;;;;4.15;95.35;101551.97;5055125;28;20045;-68
2021/11/12 00:23:18;;;;;;;20.45;11.77;;;;;;;4.08;95.58;101547.13;5055206;28;20032;-69
2021/11/12 00:25:45;;;;;;;18.05;11.68;;;;;;;3.99;95.51;101552.38;5055028;28;20518;-75
2021/11/12 00:28:12;;;;;;;16.08;11.25;;;;;;;4.00;95.79;101549.06;5054652;28;20495;-69
2021/11/12 00:30:52;;;;;;;17.02;11.23;;;;;;;4.07;94.58;101540.22;5054316;28;20111;-70
2021/11/12 00:38:55;;;;;;;16.48;10.55;;;;;;;3.28;94.26;101392.56;4992280;28;20108;-71
2021/11/12 00:43:49;;;;;;;17.85;10.82;;;;;;;3.48;94.28;101446.13;4988801;28;20130;-72
2021/11/12 00:49:06;;;;;;;17.38;11.52;;;;;;;3.98;93.88;101502.06;4990403;28;20476;-70
2021/11/12 00:51:38;;;;;;;16.15;10.38;;;;;;;4.11;94.28;101519.28;4989617;28;20081;-68
2021/11/12 00:56:31;;;;;;;16.02;11.63;;;;;;;3.96;94.04;101518.94;4989614;28;20038;-70
2021/11/12 00:58:59;;;;;;;14.18;9.27;;;;;;;3.92;93.74;101511.78;4989642;28;20459;-74
2021/11/12 01:01:26;;;;;;;12.15;9.40;;;;;;;3.89;93.91;101509.88;4991493;28;20105;-68
2021/11/12 01:03:53;;;;;;;17.33;10.50;;;;;;;3.73;94.30;101514.53;4989813;28;20054;-68
2021/11/12 01:06:20;;;;;;;18.45;11.65;;;;;;;3.77;94.42;101508.88;4975467;28;20046;-68
2021/11/12 01:08:45;;;;;;;17.10;10.90;;;;;;;3.81;94.25;101516.00;4992289;28;20031;-66
2021/11/12 01:11:13;;;;;;;16.10;9.38;;;;;;;3.58;94.49;101483.53;4991994;28;20041;-66
2021/11/12 01:13:40;;;;;;;15.70;10.27;;;;;;;3.20;94.37;101412.34;5034528;28;20037;-68
2021/11/12 01:16:06;;;;;;;15.85;9.80;;;;;;;3.80;94.35;101513.34;5053607;28;20024;-70
2021/11/12 01:18:36;;;;;;;16.52;9.82;;;;;;;3.77;94.09;101506.31;5052819;28;20033;-68
2021/11/12 01:21:02;;;;;;;;;;;;;;;3.70;94.17;101512.59;5034961;28;20045;-68
2021/11/12 01:23:27;;;;;;;15.55;9.60;;;;;;;3.62;93.73;101500.88;5053991;28;20008;-68
2021/11/12 01:25:53;;;;;;;14.32;8.80;;;;;;;3.03;93.57;101403.34;5036055;28;20112;-65
2021/11/12 01:28:19;;;;;;;15.18;9.25;;;;;;;3.24;94.07;101434.81;5053553;28;20033;-67
2021/11/12 01:30:44;;;;;;;12.88;8.52;;;;;;;3.51;94.21;101488.88;5035740;28;20040;-71
2021/11/12 01:33:10;;;;;;;13.20;8.95;;;;;;;3.56;94.45;101505.47;5053024;28;20037;-69
2021/11/12 01:35:37;;;;;;;14.75;9.27;;;;;;;3.44;94.95;101484.03;5053732;28;20463;-68
2021/11/12 01:38:02;;;;;;;11.98;8.98;;;;;;;3.15;94.37;101434.06;5053458;28;20501;-67
2021/11/12 01:40:29;;;;;;;12.82;8.63;;;;;;;3.48;94.62;101497.19;5052754;28;20033;-70
2021/11/12 01:43:01;;;;;;;13.13;9.10;;;;;;;3.41;95.04;101489.78;5015843;28;20052;-69
2021/11/12 01:45:39;;;;;;;15.73;9.23;;;;;;;2.72;95.21;101400.78;5052679;28;20463;-70
2021/11/12 01:51:12;;;;;;;13.65;8.85;;;;;;;3.21;95.68;101490.69;4971445;28;20128;-70
2021/11/12 01:53:47;;;;;;;12.75;9.07;;;;;;;3.21;96.06;101490.69;4971736;28;20063;-69
2021/11/12 02:01:20;;;;;;;14.32;8.95;;;;;;;2.60;95.90;101385.34;4971484;28;20050;-67
2021/11/12 02:03:46;;;;;;;18.65;9.75;;;;;;;3.07;96.10;101477.69;4971387;28;20034;-68
2021/11/12 02:06:15;;;;;;;14.55;8.82;;;;;;;3.05;96.29;101474.13;4971413;28;20491;-69
2021/11/12 02:08:41;;;;;;;;;;;;;;;3.05;96.13;101476.69;4972133;28;20462;-68
2021/11/12 02:11:06;;;;;;;12.40;8.27;;;;;;;2.97;96.07;101462.38;4972106;28;20004;-68
2021/11/12 02:13:34;;;;;;;14.55;8.60;;;;;;;3.05;96.14;101479.22;4971937;28;20049;-68
2021/11/12 02:16:00;;;;;;;13.93;8.77;;;;;;;3.12;95.73;101474.66;4955712;28;20039;-75
2021/11/12 02:18:31;;;;;;;15.85;10.00;;;;;;;3.16;95.51;101469.00;4971792;28;20038;-73
2021/11/12 02:21:10;;;;;;;13.13;8.48;;;;;;;3.20;95.41;101477.06;4971475;28;20522;-68
2021/11/12 02:23:47;;;;;;;14.18;9.25;;;;;;;3.18;95.23;101463.28;4971382;28;20038;-67
2021/11/12 02:26:20;;;;;;;13.35;8.52;;;;;;;3.29;94.80;101478.56;4972889;28;20046;-68
2021/11/12 02:28:48;;;;;;;12.30;8.70;;;;;;;3.21;94.80;101467.72;5052531;28;20032;-66
2021/11/12 02:31:15;;;;;;;15.95;9.63;;;;;;;2.58;94.94;101375.03;5052087;28;20041;-67
2021/11/12 02:33:41;;;;;;;12.02;8.57;;;;;;;2.95;95.49;101446.03;5052288;28;20025;-69
2021/11/12 02:36:12;;;;;;;15.13;9.30;;;;;;;2.61;95.48;101392.25;5052461;28;20490;-66
2021/11/12 02:38:45;;;;;;;14.55;8.80;;;;;;;2.96;95.54;101470.78;5052315;28;20115;-71
2021/11/12 02:41:12;;;;;;;13.90;9.48;;;;;;;2.86;95.56;101460.59;4984892;28;20056;-71
2021/11/12 02:43:40;;;;;;;16.60;9.27;;;;;;;2.77;95.91;101452.16;5050991;28;20100;-71
2021/11/12 02:46:08;;;;;;;15.53;8.93;;;;;;;2.21;96.60;101384.66;5051900;28;20115;-69
2021/11/12 02:48:37;;;;;;;16.48;10.40;;;;;;;2.48;97.06;101450.59;5016773;28;20040;-68
2021/11/12 02:51:04;;;;;;;15.10;9.40;;;;;;;2.59;97.12;101462.59;5052130;28;20095;-69
2021/11/12 02:53:29;;;;;;;14.82;9.77;;;;;;;2.59;96.67;101452.38;5052458;28;20048;-69
2021/11/12 02:56:00;;;;;;;14.65;10.23;;;;;;;2.59;96.55;101449.84;5051765;28;20021;-70
2021/11/12 02:58:25;;;;;;;13.45;9.50;;;;;;;2.54;96.77;101425.63;5051698;28;20025;-70
2021/11/12 03:00:51;;;;;;;16.10;9.65;;;;;;;2.05;96.23;101338.28;5052125;28;20108;-69
2021/11/12 03:03:17;;;;;;;13.50;9.30;;;;;;;2.81;95.66;101449.13;5051832;28;20021;-67
2021/11/12 03:05:42;;;;;;;13.90;9.10;;;;;;;2.77;95.47;101436.84;5051870;28;20033;-74
2021/11/12 03:08:08;;;;;;;13.48;8.23;;;;;;;2.63;95.19;101421.31;5051796;28;20055;-69
2021/11/12 03:10:34;;;;;;;16.92;9.82;;;;;;;2.70;95.64;101438.00;5052010;28;20029;-70
2021/11/12 03:13:00;;;;;;;13.00;9.37;;;;;;;2.28;95.37;101368.25;5051802;28;20103;-71
2021/11/12 03:15:25;;;;;;;16.43;9.87;;;;;;;2.33;95.56;101369.53;5051434;28;20406;-72
2021/11/12 03:17:53;;;;;;;14.90;9.20;;;;;;;2.75;95.47;101432.53;5051749;28;20025;-70
2021/11/12 03:20:19;;;;;;;15.23;9.50;;;;;;;2.80;94.82;101445.66;5051767;28;20067;-69
2021/11/12 03:22:54;;;;;;;14.18;10.02;;;;;;;2.83;94.47;101425.53;5051641;28;20498;-71
2021/11/12 03:25:45;;;;;;;15.85;10.70;;;;;;;2.73;94.14;101417.88;5016377;28;20044;-68
2021/11/12 04:03:59;;;;;;;15.18;10.15;;;;;;;2.20;96.22;101403.25;4931393;29;20422;-69
2021/11/12 05:56:19;;;;;;;21.20;14.70;;;;;;;1.73;97.48;101378.03;5053279;28;20411;-71
2021/11/12 05:58:46;;;;;;;26.83;14.77;;;;;;;1.88;98.02;101413.22;5053089;28;20025;-70
2021/11/12 06:01:11;;;;;;;24.97;14.40;;;;;;;1.80;98.08;101381.13;5043976;28;20108;-68
2021/11/12 06:03:37;;;;;;;25.33;15.50;;;;;;;1.72;97.53;101376.25;5030632;28;20456;-71
2021/11/12 06:06:02;;;;;;;24.50;15.47;;;;;;;2.02;98.45;101414.41;5030629;28;20053;-70
2021/11/12 06:08:28;;;;;;;26.33;15.33;;;;;;;2.15;97.98;101412.16;5033059;28;20033;-70
2021/11/12 06:10:53;;;;;;;23.27;14.97;;;;;;;2.12;98.17;101414.47;5043458;28;20025;-71
2021/11/12 06:13:19;;;;;;;27.47;17.80;;;;;;;2.00;99.16;101423.59;5044808;28;20029;-73
2021/11/12 06:15:44;;;;;;;28.43;18.70;;;;;;;1.96;100.00;101412.25;5031855;28;20431;-71
2021/11/12 06:18:11;;;;;;;24.80;18.57;;;;;;;2.17;100.00;101425.94;5040978;28;20060;-69
2021/11/12 06:20:37;;;;;;;31.40;20.57;;;;;;;2.16;100.00;101395.25;5030864;28;20123;-69
2021/11/12 06:23:03;;;;;;;31.13;19.63;;;;;;;2.45;100.00;101414.66;5033138;28;20463;-69
2021/11/12 06:25:28;;;;;;;29.07;20.47;;;;;;;2.55;100.00;101424.84;5030953;28;20418;-69
2021/11/12 06:27:54;;;;;;;31.73;20.87;;;;;;;2.63;100.00;101397.47;5032914;28;20026;-69
2021/11/12 06:30:20;;;;;;;29.80;19.83;;;;;;;2.34;100.00;101347.47;5032816;28;20471;-69
2021/11/12 06:32:45;;;;;;;29.85;19.38;;;;;;;2.98;100.00;101431.00;5032583;28;20108;-72
2021/11/12 06:35:11;;;;;;;28.92;20.13;;;;;;;3.18;99.65;101424.13;5032283;28;20041;-71
2021/11/12 06:37:37;;;;;;;28.65;19.05;;;;;;;2.88;98.52;101350.28;5032141;28;20414;-72
2021/11/12 06:40:04;;;;;;;29.00;19.02;;;;;;;2.99;98.51;101356.28;5032625;28;20029;-70
2021/11/12 06:42:35;;;;;;;31.50;19.73;;;;;;;3.45;98.99;101417.81;5032665;28;20064;-69
2021/11/12 06:50:15;;;;;;;28.48;19.25;;;;;;;3.30;98.08;101323.03;5032427;28;20099;-71
2021/11/12 06:52:47;;;;;;;27.10;20.48;;;;;;;3.61;98.39;101373.06;5032185;28;20099;-71
2021/11/12 06:55:14;;;;;;;30.38;20.08;;;;;;;3.77;98.27;101416.94;5032347;28;20026;-71
2021/11/12 06:57:41;;;;;;;28.63;19.55;;;;;;;3.93;98.21;101392.63;5032156;28;20041;-71
2021/11/12 07:00:13;;;;;;;26.33;18.48;;;;;;;3.89;97.57;101388.94;5031977;28;20491;-69
2021/11/12 07:02:40;;;;;;;25.50;18.27;;;;;;;4.07;97.94;101399.69;5013983;28;20038;-71
2021/11/12 07:05:07;;;;;;;26.65;19.98;;;;;;;4.03;97.50;101406.22;5021404;28;20079;-71
2021/11/12 07:07:33;;;;;;;27.60;19.98;;;;;;;4.26;98.12;101401.13;5032182;28;20065;-72
2021/11/12 07:09:59;;;;;;;26.65;18.88;;;;;;;4.36;97.07;101399.41;5031963;28;20108;-73
2021/11/12 07:12:25;;;;;;;29.58;20.73;;;;;;;4.32;97.52;101396.47;5031654;28;20057;-70
2021/11/12 07:14:50;;;;;;;25.77;18.60;;;;;;;4.32;97.29;101388.81;5014499;28;20087;-72
2021/11/12 07:17:16;;;;;;;27.23;18.88;;;;;;;4.59;96.53;101407.03;5031922;28;20426;-71
2021/11/12 07:19:41;;;;;;;27.40;18.17;;;;;;;4.67;96.60;101393.16;5031430;28;20018;-72
2021/11/12 07:22:08;;;;;;;26.40;18.13;;;;;;;4.83;97.17;101402.88;5028881;28;20025;-70
2021/11/12 07:24:34;;;;;;;27.75;18.25;;;;;;;4.93;96.49;101401.91;5014282;28;20112;-69
2021/11/12 07:27:00;;;;;;;24.90;19.52;;;;;;;4.93;96.38;101407.91;5030983;28;20124;-70
2021/11/12 07:29:28;;;;;;;28.83;19.30;;;;;;;5.01;96.23;101388.91;5031821;28;20030;-71
2021/11/12 07:31:55;;;;;;;25.73;19.15;;;;;;;4.66;96.20;101333.44;5029019;28;20044;-69
2021/11/12 07:34:24;;;;;;;28.50;18.60;;;;;;;5.00;96.19;101404.16;5031771;28;20060;-71
2021/11/12 07:36:54;;;;;;;26.33;19.08;;;;;;;4.98;96.72;101393.78;5031653;28;20040;-72
2021/11/12 07:39:48;;;;;;;26.80;19.35;;;;;;;5.09;97.39;101388.59;5031708;28;20095;-69
2021/11/12 07:47:14;;;;;;;25.23;19.70;;;;;;;5.19;98.43;101389.34;5031382;28;20037;-69
2021/11/12 07:49:51;;;;;;;27.95;21.45;;;;;;;5.27;99.00;101392.50;5031418;28;20032;-72
2021/11/12 07:52:23;;;;;;;30.58;20.73;;;;;;;5.31;98.50;101376.56;5011404;28;20413;-69
2021/11/12 07:54:49;;;;;;;26.90;19.85;;;;;;;5.41;98.79;101379.78;5031381;28;20445;-69
2021/11/12 07:57:16;;;;;;;26.77;20.73;;;;;;;5.20;99.45;101303.22;5031506;28;20033;-71
2021/11/12 07:59:41;;;;;;;29.42;19.58;;;;;;;5.75;98.60;101370.28;5031422;28;20030;-71
2021/11/12 08:02:07;;;;;;;27.23;19.75;;;;;;;5.77;98.05;101371.31;5031392;28;20033;-71
2021/11/12 08:04:35;;;;;;;28.65;21.25;;;;;;;5.38;97.99;101285.72;5026906;28;20034;-69
2021/11/12 08:07:01;;;;;;;23.23;18.20;;;;;;;5.89;98.60;101350.75;5025084;28;20036;-70
2021/11/12 08:09:35;;;;;;;22.48;18.52;;;;;;;6.21;97.91;101372.66;5031856;28;20108;-72
2021/11/12 08:12:11;;;;;;;25.80;19.98;;;;;;;6.36;96.82;101370.25;5031365;28;20025;-71
2021/11/12 08:22:20;;;;;;;24.35;18.33;;;;;;;6.80;96.20;101376.59;5011389;28;20033;-71
2021/11/12 08:42:44;;;;;;;27.15;19.65;;;;;;;7.35;94.93;101345.06;5011984;28;20025;-73
2021/11/12 08:45:26;;;;;;;22.13;17.98;;;;;;;6.68;94.43;101201.31;5011272;28;20388;-72
2021/11/12 08:47:59;;;;;;;25.30;17.40;;;;;;;7.71;93.36;101346.53;5005511;28;20034;-73
2021/11/12 08:50:25;;;;;;;22.02;17.20;;;;;;;7.86;92.84;101345.69;5012616;28;20562;-71
2021/11/12 08:52:54;;;;;;;21.30;16.27;;;;;;;7.29;92.31;101224.84;5010596;28;20073;-72
2021/11/12 08:55:27;;;;;;;27.13;18.38;;;;;;;8.16;92.19;101336.41;4953917;28;20044;-72
2021/11/12 09:18:04;;;;;;;18.60;14.73;;;;;;;8.54;89.50;101294.06;5005809;28;20569;-71
2021/11/12 09:20:30;;;;;;;18.25;14.50;;;;;;;8.74;89.80;101317.53;5013500;28;20045;-68
2021/11/12 09:22:57;;;;;;;19.92;14.10;;;;;;;8.72;89.53;101301.09;5016555;28;20454;-68
2021/11/12 09:25:24;;;;;;;19.92;13.55;;;;;;;8.95;88.69;101301.50;5031331;28;20033;-70
2021/11/12 09:27:51;;;;;;;17.60;13.35;;;;;;;9.08;88.33;101304.00;5019127;28;20510;-70
2021/11/12 09:30:39;;;;;;;20.70;13.48;;;;;;;9.02;88.86;101304.56;5003693;28;20038;-72
2021/11/12 09:33:14;;;;;;;12.80;9.90;;;;;;;9.22;87.74;101297.03;5021547;28;20042;-70
2021/11/12 09:35:42;;;;;;;13.20;11.13;;;;;;;9.39;88.08;101295.41;4981505;28;20194;-70
2021/11/12 09:38:08;;;;;;;18.30;11.48;;;;;;;9.49;87.74;101289.94;4998360;28;20039;-71
2021/11/12 09:40:35;;;;;;;14.57;10.25;;;;;;;9.60;86.82;101266.44;5026912;28;20034;-72
2021/11/12 09:43:44;;;;;;;14.40;10.30;;;;;;;9.83;85.99;101278.88;4989553;28;20046;-70
2021/11/12 09:46:12;;;;;;;;;;;;;;;9.96;84.65;101282.09;4980835;28;20072;-71
2021/11/12 09:48:42;;;;;;;12.05;9.73;;;;;;;9.99;85.39;101280.56;4921680;28;19918;-73
2021/11/12 09:51:08;;;;;;;12.73;9.68;;;;;;;9.87;84.71;101248.97;4935424;28;20038;-70
2021/11/12 09:53:34;;;;;;;13.55;7.88;;;;;;;10.18;82.71;101271.19;4972225;28;20114;-72
2021/11/12 09:56:00;;;;;;;11.00;7.00;;;;;;;10.17;81.18;101247.09;4972120;28;20535;-68
2021/11/12 09:58:25;;;;;;;11.00;7.10;;;;;;;10.40;81.09;101268.03;4972153;28;20038;-68
2021/11/12 10:00:59;;;;;;;12.93;7.97;;;;;;;10.58;81.53;101265.50;4975693;28;20578;-66
2021/11/12 10:03:33;;;;;;;10.57;6.20;;;;;;;10.20;80.00;101164.69;4991613;28;20038;-68
2021/11/12 10:06:00;;;;;;;10.38;6.82;;;;;;;10.82;80.04;101246.84;4991652;28;20038;-66
2021/11/12 10:08:38;;;;;;;11.90;5.97;;;;;;;10.78;79.11;101229.41;4991594;28;20420;-67
2021/11/12 10:11:09;;;;;;;14.07;6.38;;;;;;;10.97;79.24;101226.03;4991947;28;20058;-67
2021/11/12 10:13:47;;;;;;;8.43;6.15;;;;;;;11.19;80.42;101230.53;4991294;28;20042;-66
2021/11/12 10:19:19;;;;;;;9.10;5.03;;;;;;;11.28;79.47;101228.34;4991492;28;20473;-68
2021/11/12 10:22:02;;;;;;;11.10;5.53;;;;;;;10.88;78.51;101220.41;5008481;28;20045;-68
2021/11/12 10:24:32;;;;;;;9.48;4.20;;;;;;;10.92;78.14;101223.22;5009953;28;20504;-71
2021/11/12 10:27:01;;;;;;;8.85;3.53;;;;;;;10.65;76.90;101128.16;5027643;28;20475;-69
2021/11/12 10:29:33;;;;;;;11.30;3.73;;;;;;;11.24;77.41;101210.94;5030491;28;20041;-72
2021/11/12 10:32:02;;;;;;;8.38;3.75;;;;;;;11.18;77.10;101192.56;5019700;28;20034;-69
2021/11/12 10:34:33;;;;;;;9.38;3.70;;;;;;;11.18;77.90;101200.31;5027133;28;20120;-72
2021/11/12 10:37:19;;;;;;;10.90;4.75;;;;;;;11.45;77.79;101199.78;5042945;28;20033;-72
2021/11/12 10:39:57;;;;;;;10.13;4.10;;;;;;;11.55;77.60;101190.75;5032121;28;20064;-74
2021/11/12 10:42:25;;;;;;;8.80;3.92;;;;;;;11.42;77.14;101192.78;5011876;28;20030;-72
2021/11/12 10:44:54;;;;;;;15.95;5.22;;;;;;;11.08;76.67;101113.72;5012053;28;20025;-69
2021/11/12 10:47:20;;;;;;;15.93;4.30;;;;;;;11.41;77.29;101174.63;5011194;28;20057;-73
2021/11/12 10:50:06;;;;;;;11.02;4.13;;;;;;;11.65;77.04;101183.47;5011977;28;20034;-70
2021/11/12 10:52:34;;;;;;;12.40;4.70;;;;;;;11.70;76.65;101180.19;5011544;28;20480;-71
2021/11/12 10:55:05;;;;;;;15.35;5.15;;;;;;;11.27;75.89;101076.66;5011740;28;20033;-68
2021/11/12 10:57:33;;;;;;;14.65;4.65;;;;;;;12.00;75.76;101170.34;5011845;28;20044;-71
2021/11/12 11:00:08;;;;;;;11.05;4.65;;;;;;;11.48;75.25;101093.94;5011544;28;20179;-68
2021/11/12 11:02:55;;;;;;;12.70;4.60;;;;;;;11.61;75.97;101144.47;5011619;28;20040;-68
2021/11/12 11:05:22;;;;;;;19.92;5.70;;;;;;;11.87;76.35;101163.69;5011778;28;20408;-69
2021/11/12 11:08:05;;;;;;;26.63;7.47;;;;;;;11.95;74.99;101157.16;5011592;28;20030;-71
2021/11/12 11:10:36;;;;;;;17.65;5.28;;;;;;;11.84;74.86;101136.81;5011717;28;20084;-70
2021/11/12 11:13:09;;;;;;;20.75;5.88;;;;;;;12.01;74.95;101153.09;5011208;28;20030;-71
2021/11/12 11:15:39;;;;;;;23.27;5.50;;;;;;;12.08;75.61;101156.00;5009360;28;20049;-70
2021/11/12 11:18:19;;;;;;;24.42;6.93;;;;;;;12.23;74.98;101147.09;5011608;28;20481;-71
2021/11/12 11:20:52;;;;;;;22.73;6.85;;;;;;;11.91;74.63;101088.00;5011156;28;20050;-68
2021/11/12 11:23:19;;;;;;;15.02;4.43;;;;;;;12.39;74.49;101136.53;5011493;28;20022;-73
2021/11/12 11:25:59;;;;;;;11.38;4.60;;;;;;;12.45;74.23;101139.38;5011270;28;20056;-70
2021/11/12 11:28:24;;;;;;;14.82;4.55;;;;;;;12.45;74.18;101134.19;5010887;28;20056;-67
2021/11/12 11:30:50;;;;;;;13.40;4.10;;;;;;;12.61;74.02;101127.03;5011331;28;20468;-69
2021/11/12 11:33:17;;;;;;;12.05;4.97;;;;;;;12.51;73.88;101102.50;5010414;28;20022;-70
2021/11/12 11:35:45;;;;;;;8.75;4.15;;;;;;;12.55;74.31;101111.28;5011170;28;20044;-68
2021/11/12 11:38:16;;;;;;;19.20;4.88;;;;;;;12.37;74.14;101052.72;5011021;28;20087;-69
2021/11/12 11:40:47;;;;;;;15.40;8.88;;;;;;;12.56;75.36;101095.78;5009559;28;20088;-71
2021/11/12 11:43:14;;;;;;;10.77;4.10;;;;;;;12.66;76.25;101115.16;5029940;28;20025;-70
2021/11/12 11:45:40;;;;;;;17.30;9.65;;;;;;;12.67;76.76;101114.31;5050172;28;20031;-70
2021/11/12 11:48:06;;;;;;;15.77;8.68;;;;;;;12.25;76.35;101068.69;5049809;28;20055;-72
2021/11/12 11:50:33;;;;;;;15.68;8.52;;;;;;;12.52;76.76;101109.41;5050381;28;20467;-73
2021/11/12 11:53:24;;;;;;;8.45;3.70;;;;;;;12.51;76.93;101111.97;5050760;28;20025;-72
2021/11/12 11:56:11;;;;;;;5.57;3.75;;;;;;;12.48;76.42;101111.84;5049706;28;20028;-71
2021/11/12 11:58:40;;;;;;;10.75;5.28;;;;;;;12.33;77.89;101112.13;5043006;28;20032;-74
2021/11/12 12:01:29;;;;;;;9.47;3.70;;;;;;;12.36;77.93;101120.00;5031148;28;20527;-71
2021/11/12 12:04:10;;;;;;;7.95;4.97;;;;;;;12.31;78.11;101106.88;5032236;28;20306;-72
2021/11/12 12:06:40;;;;;;;6.75;3.45;;;;;;;12.22;77.91;101089.25;5037445;28;20030;-70
2021/11/12 12:09:11;;;;;;;8.13;4.22;;;;;;;12.35;77.95;101100.09;5019342;28;20044;-70
2021/11/12 12:11:49;;;;;;;6.75;3.78;;;;;;;12.21;78.86;101079.75;5038021;28;20048;-71
2021/11/12 12:14:32;;;;;;;6.35;3.40;;;;;;;12.12;77.66;101077.69;5037710;28;20022;-70
2021/11/12 12:17:09;;;;;;;8.40;4.93;;;;;;;12.34;79.27;101104.41;5037574;28;20030;-71
2021/11/12 12:19:56;;;;;;;15.40;5.10;;;;;;;12.29;79.14;101093.88;5037809;28;20018;-70
2021/11/12 13:25:23;;;;;;;6.38;4.07;;;;;;;12.06;77.61;101074.84;5034362;28;20105;-70
2021/11/12 13:27:49;;;;;;;13.23;8.15;;;;;;;12.12;77.19;101071.59;5033862;28;20030;-70
2021/11/12 13:30:26;;;;;;;10.43;5.28;;;;;;;11.89;76.48;101039.59;5034174;28;20480;-70
2021/11/12 13:32:52;;;;;;;6.80;4.03;;;;;;;12.00;76.20;101061.66;5034146;28;20068;-70
2021/11/12 13:35:35;;;;;;;8.52;5.40;;;;;;;11.99;76.55;101072.81;5034195;28;20060;-70
2021/11/12 13:38:03;;;;;;;7.30;5.05;;;;;;;11.93;75.52;101054.41;5033951;28;20495;-70
2021/11/12 13:40:34;;;;;;;15.30;5.20;;;;;;;12.06;75.39;101072.25;5034128;28;20022;-70
2021/11/12 13:43:00;;;;;;;13.68;7.55;;;;;;;12.03;74.57;101059.16;5034142;28;20102;-70
2021/11/12 13:45:27;;;;;;;18.17;11.32;;;;;;;12.14;74.83;101076.00;5015542;28;20041;-69
2021/11/12 13:48:14;;;;;;;13.80;9.20;;;;;;;12.04;75.36;101068.72;5034023;28;20037;-69
2021/11/12 13:51:01;;;;;;;7.75;3.88;;;;;;;12.07;74.95;101074.00;5033999;28;20036;-70
2021/11/12 13:53:29;;;;;;;7.97;4.35;;;;;;;12.09;75.85;101071.50;5025253;28;20040;-69
2021/11/12 13:55:56;;;;;;;8.32;3.80;;;;;;;11.97;76.51;101070.19;5013931;28;20091;-71
2021/11/12 13:58:24;;;;;;;12.00;4.32;;;;;;;11.53;76.99;100989.00;5014368;28;20018;-70
2021/11/12 14:00:51;;;;;;;7.95;4.20;;;;;;;11.91;76.99;101071.56;5013646;28;20034;-70
2021/11/12 14:03:19;;;;;;;8.48;4.47;;;;;;;11.75;76.81;101050.25;5013860;28;20057;-70
2021/11/12 14:06:01;;;;;;;6.72;3.75;;;;;;;11.94;76.47;101071.72;5013682;28;20038;-70
2021/11/12 14:08:39;;;;;;;8.35;4.45;;;;;;;11.85;77.18;101064.47;5013483;28;20032;-72
2021/11/12 14:11:29;;;;;;;9.32;4.28;;;;;;;11.91;76.42;101081.91;5013844;28;20034;-70
2021/11/12 14:13:59;;;;;;;11.73;6.25;;;;;;;11.84;76.89;101075.63;5013894;28;20033;-73
2021/11/12 14:16:31;;;;;;;15.45;7.05;;;;;;;11.24;76.35;100985.19;5013608;28;20404;-70
2021/11/12 14:21:45;;;;;;;12.70;7.47;;;;;;;11.61;77.06;101061.72;5033045;28;20523;-69
2021/11/12 14:24:27;;;;;;;13.68;7.82;;;;;;;11.77;77.54;101089.97;5033393;28;20487;-71
2021/11/12 14:27:10;;;;;;;14.07;6.68;;;;;;;11.70;76.93;101085.41;5032556;28;20479;-69
2021/11/12 14:30:15;;;;;;;19.08;8.02;;;;;;;11.73;77.28;101082.91;5033332;28;20033;-68
2021/11/12 14:51:41;;;;;;;17.53;5.40;;;;;;;11.51;77.91;101091.47;4951955;29;20163;-70
2021/11/12 14:54:17;;;;;;;13.52;5.28;;;;;;;11.46;77.68;101072.28;4952246;29;20039;-71
2021/11/12 14:56:47;;;;;;;19.40;6.90;;;;;;;11.53;77.81;101076.03;4933680;29;20431;-70
2021/11/12 14:59:16;;;;;;;11.90;7.07;;;;;;;11.47;77.41;101061.13;4949697;29;20138;-70
2021/11/12 15:01:42;;;;;;;16.13;8.73;;;;;;;11.08;77.73;100997.44;4951594;29;20132;-69
2021/11/12 15:04:07;;;;;;;20.02;9.50;;;;;;;11.57;77.78;101072.75;4949907;29;20137;-70
2021/11/12 15:06:34;;;;;;;14.75;8.32;;;;;;;11.55;77.96;101069.22;4950523;29;20047;-70
2021/11/12 15:09:22;;;;;;;17.80;8.02;;;;;;;11.48;77.75;101065.50;4949699;29;20436;-69
2021/11/12 15:11:50;;;;;;;18.20;8.07;;;;;;;11.47;77.67;101059.41;4970213;28;20048;-70
2021/11/12 15:14:23;;;;;;;18.08;8.90;;;;;;;10.70;78.30;100950.16;5032179;28;20029;-70
2021/11/12 15:16:48;;;;;;;24.05;10.55;;;;;;;10.92;78.41;101001.06;5032430;28;20030;-70
2021/11/12 15:19:16;;;;;;;20.92;10.30;;;;;;;11.41;78.50;101087.59;5032178;28;20036;-70
2021/11/12 15:34:30;;;;;;;228.57;103.25;;;;;;;11.06;79.28;101058.50;4971206;28;20397;-70
2021/11/12 15:37:04;;;;;;;169.63;82.00;;;;;;;11.05;79.24;101059.31;4970924;28;20047;-69
2021/11/12 15:44:42;;;;;;;61.53;30.08;;;;;;;11.19;79.78;101113.31;4894648;29;20050;-70
2021/11/12 15:47:31;;;;;;;105.68;46.92;;;;;;;11.14;80.25;101111.44;4894639;29;20554;-70
2021/11/12 15:53:03;;;;;;;85.47;43.42;;;;;;;10.84;81.14;101116.97;4857643;29;20440;-70
2021/11/12 15:58:33;;;;;;;68.15;35.05;;;;;;;10.68;81.86;101111.91;4857090;29;20048;-70
2021/11/12 16:22:28;;;;;;;32.03;19.55;;;;;;;10.11;83.08;101135.81;4893152;29;20045;-71
2021/11/12 16:27:25;;;;;;;23.63;15.07;;;;;;;9.46;82.86;101051.75;4892524;29;20075;-73
2021/11/12 16:29:53;;;;;;;26.48;17.15;;;;;;;9.68;83.98;101149.13;4934907;28;20497;-73
2021/11/12 16:32:24;;;;;;;22.33;14.27;;;;;;;8.76;87.70;101115.13;4969171;28;20034;-73
2021/11/12 16:34:55;;;;;;;24.85;13.50;;;;;;;8.88;88.28;101143.22;4968902;28;20038;-69
2021/11/12 16:37:25;;;;;;;21.95;12.63;;;;;;;8.09;91.75;101121.66;4951990;28;20037;-72
2021/11/12 16:40:17;;;;;;;16.17;10.98;;;;;;;7.50;92.83;101059.97;4969144;28;20463;-72
2021/11/12 16:45:24;;;;;;;19.15;11.70;;;;;;;8.17;92.56;101147.81;4969213;28;20115;-71
2021/11/12 17:05:50;;;;;;;35.58;17.00;;;;;;;8.71;89.90;101142.28;5052746;28;20032;-72
2021/11/12 17:19:16;;;;;;;56.25;33.95;;;;;;;8.99;87.13;101154.97;5053150;28;20427;-74
2021/11/12 18:02:59;;;;;;;30.80;16.58;;;;;;;7.68;93.75;101157.81;4971152;28;20149;-73
2021/11/12 18:11:14;;;;;;;24.50;14.82;;;;;;;7.76;94.97;101161.72;4972043;28;20544;-72
2021/11/12 18:16:27;;;;;;;25.75;16.00;;;;;;;7.93;92.65;101189.31;4959229;28;20046;-76
2021/11/12 21:48:38;;;;;;;23.85;16.77;;;;;;;5.90;90.58;101178.28;4996094;28;20051;-76
2021/11/12 21:51:06;;;;;;;33.83;18.27;;;;;;;5.59;90.36;101148.00;5033431;28;20069;-70
2021/11/12 21:53:33;;;;;;;26.85;17.42;;;;;;;6.01;90.65;101217.50;5033390;28;20061;-70
2021/11/12 21:56:00;;;;;;;25.65;16.67;;;;;;;5.94;91.11;101208.47;5015285;28;20502;-77
2021/11/12 21:58:28;;;;;;;30.67;16.38;;;;;;;5.63;91.90;101170.53;4982055;28;20045;-71
2021/11/12 22:00:55;;;;;;;27.52;17.98;;;;;;;5.81;93.60;101205.84;5041600;28;20459;-71
2021/11/12 22:03:23;;;;;;;25.58;17.90;;;;;;;5.40;93.77;101129.66;5051896;28;20032;-70
2021/11/12 22:05:49;;;;;;;31.05;18.95;;;;;;;5.43;94.92;101140.09;5052390;28;20033;-73
2021/11/12 22:08:15;;;;;;;27.98;19.35;;;;;;;5.81;96.07;101206.72;5034551;28;20380;-73
2021/11/12 22:10:42;;;;;;;37.13;18.90;;;;;;;5.63;96.16;101173.06;5052066;28;20032;-73
2021/11/12 22:13:08;;;;;;;27.23;18.40;;;;;;;5.35;95.27;101117.38;5029149;28;20492;-71
2021/11/12 22:15:34;;;;;;;32.92;19.05;;;;;;;5.71;94.78;101203.44;5043843;28;20052;-71
2021/11/12 22:17:59;;;;;;;27.70;19.83;;;;;;;5.35;94.83;101180.53;5052271;28;20036;-70
2021/11/12 22:20:25;;;;;;;28.15;19.23;;;;;;;5.33;95.46;101200.91;5043766;28;20042;-71
2021/11/12 22:22:51;;;;;;;28.60;19.67;;;;;;;5.06;97.42;101201.50;5020576;28;20033;-70
2021/11/12 22:25:18;;;;;;;25.33;17.83;;;;;;;4.66;97.82;101150.94;4993488;28;20030;-72
2021/11/12 22:27:44;;;;;;;35.47;17.20;;;;;;;4.75;98.21;101186.53;5024945;28;20044;-73
2021/11/12 22:30:11;;;;;;;27.63;17.42;;;;;;;4.72;98.94;101201.66;5031734;28;20036;-71
2021/11/12 22:32:36;;;;;;;24.63;15.82;;;;;;;4.67;98.14;101173.19;5014308;28;20109;-71